Terminal Aerodrome Forecast
Issued by NWS Bismarck, ND

Home | Current Version | Previous Version | Text Only | Print | Product List | Glossary On
Versions: 1 2 3 4 5 6 7 8 9 10 11 12 13 14 15 16 17 18 19 20 21 22 23 24 25 26
244
FTUS43 KBIS 292330
TAFBIS
TAF
KBIS 292330Z 3000/3024 33015KT P6SM BKN100
     FM300200 31006KT P6SM SCT100
     FM301300 31010KT P6SM FEW030 SCT050
     FM301600 32014KT P6SM BKN060
     FM302000 34012KT P6SM SCT100=

USA.gov is the U.S. government's official web portal to all federal, state and local government web resources and services.